Time;durP1;ratioP1;P1;durP2;ratioP2;P2;SDS_P1;SDS_P2;PMS_P1;PMS_P2;Temp;Humidity;BMP_temperature;BMP_pressure;BME280_temperature;BME280_humidity;BME280_pressure;Samples;Min_cycle;Max_cycle;Signal;HPM_P1;HPM_P2
2021/09/02 00:01:54;;;;;;;9.25;5.13;;;;;;;14.51;49.10;94259.38;4970259;28;20033;-77
2021/09/02 00:04:19;;;;;;;7.00;5.45;;;;;;;14.46;48.99;94251.56;4969874;28;20677;-77
2021/09/02 00:06:44;;;;;;;8.20;5.55;;;;;;;14.31;49.46;94249.44;4971654;28;20042;-76
2021/09/02 00:09:10;;;;;;;16.50;8.15;;;;;;;14.26;49.17;94246.19;4972986;28;20434;-78
2021/09/02 00:11:35;;;;;;;12.02;7.68;;;;;;;14.31;49.28;94252.13;4969053;28;20043;-79
2021/09/02 00:14:01;;;;;;;12.35;7.28;;;;;;;14.36;49.85;94270.66;4972430;28;20129;-77
2021/09/02 00:16:26;;;;;;;11.13;5.82;;;;;;;14.29;49.73;94259.69;4971492;28;20037;-77
2021/09/02 00:18:51;;;;;;;5.13;4.13;;;;;;;14.19;49.78;94238.66;4972814;28;20516;-78
2021/09/02 00:21:17;;;;;;;8.55;4.15;;;;;;;14.36;49.26;94240.44;4969562;28;20039;-77
2021/09/02 00:23:42;;;;;;;6.20;4.78;;;;;;;14.50;49.28;94254.34;4964520;28;20057;-79
2021/09/02 00:26:08;;;;;;;4.68;3.75;;;;;;;14.48;49.25;94235.94;4971707;28;20072;-78
2021/09/02 00:28:33;;;;;;;6.13;4.22;;;;;;;14.37;49.52;94237.47;4975946;28;20517;-77
2021/09/02 00:30:58;;;;;;;7.80;3.75;;;;;;;14.07;50.14;94246.63;4975304;28;20062;-77
2021/09/02 00:33:24;;;;;;;5.68;4.00;;;;;;;13.99;50.25;94239.41;4973876;28;20049;-78
2021/09/02 00:35:49;;;;;;;5.10;4.13;;;;;;;14.19;49.57;94247.47;4977519;28;20644;-77
2021/09/02 00:38:15;;;;;;;4.45;3.67;;;;;;;14.05;50.03;94235.44;4971291;28;20014;-78
2021/09/02 00:40:40;;;;;;;4.80;3.92;;;;;;;14.02;50.13;94257.50;4976464;28;20022;-78
2021/09/02 00:43:05;;;;;;;5.88;3.85;;;;;;;14.15;50.21;94251.91;4969496;28;20437;-77
2021/09/02 00:45:34;;;;;;;4.78;3.47;;;;;;;14.23;49.88;94252.94;4973234;28;20046;-77
2021/09/02 00:47:59;;;;;;;4.70;3.83;;;;;;;14.30;49.61;94260.47;4970789;28;20514;-79
2021/09/02 00:50:25;;;;;;;6.18;3.78;;;;;;;14.28;49.42;94239.38;4972189;28;20038;-77
2021/09/02 00:52:51;;;;;;;5.75;3.10;;;;;;;14.27;49.80;94248.53;4975693;28;20030;-77
2021/09/02 00:55:16;;;;;;;5.18;3.80;;;;;;;14.12;49.92;94241.88;4974644;28;20073;-77
2021/09/02 00:57:42;;;;;;;4.80;3.75;;;;;;;14.03;50.16;94241.13;4978035;28;20272;-78
2021/09/02 01:00:11;;;;;;;6.05;4.47;;;;;;;13.93;50.66;94240.72;4966309;28;20043;-77
2021/09/02 01:02:37;;;;;;;7.05;4.53;;;;;;;14.12;50.47;94257.91;4976114;28;20100;-77
2021/09/02 01:05:04;;;;;;;9.30;4.70;;;;;;;14.28;50.19;94249.31;4988163;28;20026;-78
2021/09/02 01:07:31;;;;;;;6.88;3.85;;;;;;;13.67;50.05;94169.47;4973869;28;20038;-76
2021/09/02 01:10:01;;;;;;;7.30;5.25;;;;;;;14.33;49.74;94247.22;4975838;28;20128;-76
2021/09/02 01:12:41;;;;;;;5.90;3.95;;;;;;;14.22;50.40;94255.97;4970996;28;20046;-77
2021/09/02 01:15:10;;;;;;;5.43;3.78;;;;;;;14.26;50.21;94249.66;4973148;28;20046;-76
2021/09/02 01:17:37;;;;;;;5.35;3.90;;;;;;;14.27;50.49;94243.19;4972843;28;20093;-77
2021/09/02 01:20:06;;;;;;;8.38;4.45;;;;;;;14.28;50.01;94247.41;4972288;28;20065;-77
2021/09/02 01:22:31;;;;;;;5.00;4.20;;;;;;;14.27;49.97;94237.84;4972289;28;20623;-76
2021/09/02 01:25:06;;;;;;;4.88;4.05;;;;;;;14.26;50.49;94243.50;4970699;28;20038;-77
2021/09/02 01:27:32;;;;;;;8.00;4.55;;;;;;;14.21;50.61;94241.81;4968222;28;20053;-78
2021/09/02 01:29:59;;;;;;;6.30;4.38;;;;;;;14.15;50.60;94246.56;4978735;28;20433;-78
2021/09/02 01:32:30;;;;;;;6.22;4.55;;;;;;;14.14;50.77;94242.31;4963771;28;20050;-77
2021/09/02 01:34:57;;;;;;;8.77;4.68;;;;;;;13.97;51.03;94222.94;4974971;28;20053;-76
2021/09/02 01:37:23;;;;;;;6.47;4.32;;;;;;;14.05;51.13;94246.16;4972149;28;20556;-78
2021/09/02 01:39:50;;;;;;;10.23;4.53;;;;;;;14.07;51.01;94254.66;4972643;28;20070;-77
2021/09/02 01:42:16;;;;;;;10.82;4.80;;;;;;;14.19;50.75;94246.69;4988055;28;20039;-77
2021/09/02 01:44:42;;;;;;;7.78;4.63;;;;;;;14.16;50.71;94242.78;4973528;28;20470;-78
2021/09/02 01:47:24;;;;;;;6.13;4.30;;;;;;;14.25;50.70;94247.28;4973753;28;20491;-77
2021/09/02 01:49:50;;;;;;;8.45;5.05;;;;;;;14.01;51.10;94245.25;4971982;28;20041;-77
2021/09/02 01:52:16;;;;;;;9.98;5.38;;;;;;;14.02;51.07;94228.09;4973500;28;20065;-78
2021/09/02 01:54:41;;;;;;;7.55;4.65;;;;;;;13.98;51.07;94224.50;4972440;28;20695;-77
2021/09/02 01:57:07;;;;;;;7.57;4.70;;;;;;;14.05;51.32;94235.44;4971043;28;20035;-78
2021/09/02 01:59:33;;;;;;;8.40;5.00;;;;;;;13.99;51.47;94236.75;4973933;28;20027;-78
2021/09/02 02:01:59;;;;;;;8.07;5.35;;;;;;;13.96;51.58;94219.47;4972177;28;20046;-77
2021/09/02 02:04:24;;;;;;;6.28;4.70;;;;;;;13.90;51.74;94228.00;4971368;28;20472;-76
2021/09/02 02:06:49;;;;;;;6.50;4.50;;;;;;;14.06;51.48;94231.69;4973517;28;20413;-78
2021/09/02 02:09:15;;;;;;;7.68;5.55;;;;;;;13.84;52.05;94226.63;4972789;28;20046;-77
2021/09/02 02:11:40;;;;;;;8.93;5.75;;;;;;;13.87;51.71;94240.13;4973500;28;20049;-78
2021/09/02 02:14:06;;;;;;;9.98;5.72;;;;;;;13.95;51.81;94230.47;4975548;28;20026;-78
2021/09/02 02:16:31;;;;;;;6.85;5.07;;;;;;;13.73;52.13;94218.97;4971707;28;20445;-78
2021/09/02 02:18:57;;;;;;;7.55;5.22;;;;;;;13.74;52.22;94219.72;4974426;28;20045;-79
2021/09/02 02:21:22;;;;;;;7.85;5.95;;;;;;;13.79;52.35;94218.78;4971536;28;20801;-78
2021/09/02 02:23:48;;;;;;;6.32;5.72;;;;;;;13.81;52.45;94219.25;4972724;28;20508;-78
2021/09/02 02:26:13;;;;;;;9.93;6.45;;;;;;;13.75;52.73;94238.13;4970226;28;20117;-77
2021/09/02 02:28:39;;;;;;;7.80;6.20;;;;;;;13.79;52.76;94238.25;4974014;28;20026;-77
2021/09/02 02:31:04;;;;;;;8.82;6.40;;;;;;;13.83;52.54;94241.09;4973248;28;20294;-78
2021/09/02 02:33:29;;;;;;;6.25;5.45;;;;;;;13.57;53.33;94241.97;4971608;28;20045;-77
2021/09/02 02:35:55;;;;;;;10.15;6.95;;;;;;;13.60;53.43;94236.00;4974565;28;20035;-77
2021/09/02 02:38:20;;;;;;;13.25;8.38;;;;;;;13.64;52.92;94239.59;4972043;28;20473;-77
2021/09/02 02:40:46;;;;;;;8.75;6.22;;;;;;;13.49;53.62;94224.09;4973092;28;20026;-78
2021/09/02 02:43:13;;;;;;;9.40;7.03;;;;;;;13.60;53.38;94224.53;4964510;28;20062;-77
2021/09/02 02:45:38;;;;;;;11.07;7.68;;;;;;;13.56;53.74;94245.75;4972954;28;20105;-78
2021/09/02 02:48:04;;;;;;;10.98;6.72;;;;;;;13.74;53.18;94252.59;4972998;28;20139;-79
2021/09/02 02:50:30;;;;;;;9.20;6.60;;;;;;;13.65;53.42;94235.81;4972588;28;20535;-78
2021/09/02 02:52:55;;;;;;;8.10;7.00;;;;;;;13.80;53.59;94244.41;4974769;28;20026;-77
2021/09/02 02:55:20;;;;;;;9.98;6.63;;;;;;;14.00;53.48;94241.78;4972227;28;20038;-77
2021/09/02 02:57:46;;;;;;;10.32;7.05;;;;;;;13.99;52.99;94242.09;4973090;28;20038;-77
2021/09/02 03:00:12;;;;;;;9.63;7.03;;;;;;;14.00;52.73;94238.31;4970739;28;20043;-77
2021/09/02 03:02:37;;;;;;;10.52;7.88;;;;;;;13.99;52.67;94231.38;4971550;28;20039;-78
2021/09/02 03:05:03;;;;;;;10.40;6.47;;;;;;;14.18;52.41;94245.91;4973370;28;20038;-78
2021/09/02 03:07:28;;;;;;;9.38;7.03;;;;;;;14.21;52.18;94247.16;4972619;28;20101;-77
2021/09/02 03:09:54;;;;;;;8.68;6.43;;;;;;;14.12;51.63;94230.38;4972683;28;20108;-77
2021/09/02 03:12:19;;;;;;;7.15;6.43;;;;;;;14.24;51.80;94243.81;4971574;28;20045;-78
2021/09/02 03:14:44;;;;;;;11.35;6.97;;;;;;;14.31;51.55;94244.09;4971810;28;20034;-78
2021/09/02 03:17:10;;;;;;;10.07;6.80;;;;;;;14.23;51.84;94236.91;4971228;28;20524;-77
2021/09/02 03:19:35;;;;;;;10.68;6.82;;;;;;;14.22;51.81;94242.59;4972904;28;20019;-78
2021/09/02 03:22:01;;;;;;;7.82;6.53;;;;;;;14.33;51.61;94243.75;4971804;28;20085;-76
2021/09/02 03:24:27;;;;;;;7.07;6.38;;;;;;;14.38;51.27;94239.00;4973708;28;20026;-77
2021/09/02 03:26:52;;;;;;;9.40;7.05;;;;;;;14.34;51.94;94264.84;4985022;28;20421;-78
2021/09/02 03:29:18;;;;;;;14.20;8.45;;;;;;;14.43;51.53;94262.88;4973020;28;20034;-77
2021/09/02 03:31:43;;;;;;;10.98;7.70;;;;;;;14.36;51.29;94238.56;4972795;28;20081;-77
2021/09/02 03:34:09;;;;;;;12.25;7.60;;;;;;;14.34;51.21;94224.72;4969222;28;20030;-78
2021/09/02 03:36:34;;;;;;;10.50;7.68;;;;;;;14.59;51.04;94266.59;4974748;28;20046;-77
2021/09/02 03:38:59;;;;;;;10.00;7.35;;;;;;;14.35;51.34;94242.34;4965392;28;20414;-77
2021/09/02 03:41:25;;;;;;;9.68;7.35;;;;;;;14.23;51.88;94255.63;4975200;28;20041;-76
2021/09/02 03:43:50;;;;;;;9.90;7.35;;;;;;;14.29;51.64;94254.34;4969562;28;20559;-77
2021/09/02 03:46:16;;;;;;;10.05;8.52;;;;;;;14.19;52.12;94236.78;4973871;28;20573;-77
2021/09/02 03:48:41;;;;;;;10.38;8.15;;;;;;;14.39;51.96;94256.63;4972026;28;20049;-78
2021/09/02 03:51:07;;;;;;;8.43;7.53;;;;;;;14.52;51.81;94268.19;4972427;28;20117;-78
2021/09/02 03:53:32;;;;;;;8.70;7.72;;;;;;;14.60;51.41;94270.06;4971954;28;20115;-77
2021/09/02 03:55:57;;;;;;;9.15;7.47;;;;;;;14.50;51.42;94252.47;4976848;28;20413;-77
2021/09/02 03:58:23;;;;;;;12.35;7.68;;;;;;;14.56;51.76;94261.91;4973089;28;20049;-78
2021/09/02 04:00:48;;;;;;;8.52;7.63;;;;;;;14.57;51.71;94268.78;4971967;28;20353;-77
2021/09/02 04:03:14;;;;;;;8.20;6.70;;;;;;;14.62;51.53;94259.03;4976077;28;20069;-77
2021/09/02 04:05:39;;;;;;;9.85;7.78;;;;;;;14.54;51.48;94274.81;4975923;28;20069;-78
2021/09/02 04:08:04;;;;;;;12.55;7.80;;;;;;;14.55;51.64;94280.94;4976888;28;20034;-77
2021/09/02 04:10:30;;;;;;;10.93;8.52;;;;;;;14.48;51.76;94276.06;4976363;28;20995;-78
2021/09/02 04:12:55;;;;;;;9.93;6.80;;;;;;;14.41;51.92;94275.03;4974796;28;20046;-77
2021/09/02 04:15:21;;;;;;;8.80;7.93;;;;;;;14.35;52.18;94282.47;4974472;28;20066;-78
2021/09/02 04:17:46;;;;;;;8.77;7.68;;;;;;;14.29;52.30;94269.59;4975369;28;20042;-78
2021/09/02 04:20:12;;;;;;;11.77;7.65;;;;;;;14.36;52.04;94259.97;4977079;28;20543;-76
2021/09/02 04:22:37;;;;;;;8.55;7.75;;;;;;;14.51;51.78;94282.69;4973709;28;20029;-77
2021/09/02 04:25:03;;;;;;;9.25;7.57;;;;;;;14.66;51.61;94281.34;4992737;28;20042;-77
2021/09/02 04:27:29;;;;;;;9.75;7.72;;;;;;;14.62;51.26;94280.44;4973984;28;20433;-78
2021/09/02 04:29:54;;;;;;;10.25;8.45;;;;;;;14.39;51.68;94267.34;4976300;28;20069;-78
2021/09/02 04:32:19;;;;;;;8.25;7.13;;;;;;;14.57;51.47;94282.19;4971506;28;20037;-78
2021/09/02 04:34:45;;;;;;;8.80;7.90;;;;;;;14.63;51.53;94288.13;4972653;28;20026;-77
2021/09/02 04:37:11;;;;;;;10.38;8.00;;;;;;;14.35;51.89;94292.38;4976518;28;20077;-77
2021/09/02 04:39:36;;;;;;;13.10;7.22;;;;;;;14.08;52.69;94278.38;4974785;28;20543;-77
2021/09/02 04:42:02;;;;;;;9.07;7.43;;;;;;;14.26;52.23;94295.13;4977182;28;20043;-78
2021/09/02 04:44:27;;;;;;;8.60;7.70;;;;;;;14.12;52.36;94284.66;4973325;28;20392;-78
2021/09/02 04:46:52;;;;;;;10.98;7.13;;;;;;;14.14;52.51;94293.13;4974999;28;20030;-77
2021/09/02 04:49:18;;;;;;;8.07;7.22;;;;;;;14.11;52.15;94260.91;4977328;28;20037;-77
2021/09/02 04:51:43;;;;;;;7.00;6.25;;;;;;;14.27;52.29;94304.72;4976112;28;20041;-77
2021/09/02 04:54:09;;;;;;;9.32;7.43;;;;;;;14.17;52.50;94291.72;4972215;28;20121;-77
2021/09/02 04:56:34;;;;;;;10.18;7.25;;;;;;;14.28;52.62;94308.94;4974019;28;20121;-77
2021/09/02 04:58:59;;;;;;;10.07;7.05;;;;;;;14.11;52.22;94287.66;4976631;28;20343;-78
2021/09/02 05:01:25;;;;;;;7.70;5.55;;;;;;;14.19;52.26;94286.81;4973097;28;20037;-77
2021/09/02 05:03:50;;;;;;;9.18;6.25;;;;;;;14.26;52.68;94308.50;4975256;28;20113;-76
2021/09/02 05:06:16;;;;;;;8.00;6.38;;;;;;;14.22;52.84;94304.91;4975710;28;20541;-77
2021/09/02 05:08:43;;;;;;;7.03;5.93;;;;;;;14.22;52.67;94315.63;4973280;28;20042;-78
2021/09/02 05:11:08;;;;;;;11.45;6.28;;;;;;;14.14;52.40;94309.19;4973593;28;20413;-78
2021/09/02 05:13:34;;;;;;;9.05;6.35;;;;;;;14.10;52.44;94318.97;4978506;28;20500;-77
2021/09/02 05:15:59;;;;;;;8.48;6.20;;;;;;;14.12;53.02;94321.34;4970479;28;20038;-77
2021/09/02 05:18:25;;;;;;;7.43;6.03;;;;;;;14.29;52.61;94323.91;4975970;28;20587;-77
2021/09/02 05:20:52;;;;;;;8.80;5.60;;;;;;;14.03;51.98;94275.88;4971233;28;20413;-78
2021/09/02 05:23:17;;;;;;;16.10;7.30;;;;;;;14.12;52.38;94321.34;4970581;28;20073;-77
2021/09/02 05:25:43;;;;;;;8.15;6.30;;;;;;;14.16;51.93;94296.28;4976546;28;20042;-78
2021/09/02 05:28:08;;;;;;;9.45;5.90;;;;;;;14.20;51.86;94304.44;4976841;28;20386;-77
2021/09/02 05:30:33;;;;;;;10.80;6.15;;;;;;;14.33;51.96;94311.44;4974443;28;20041;-78
2021/09/02 05:32:59;;;;;;;7.28;5.47;;;;;;;14.54;51.76;94317.63;4971982;28;20074;-78
2021/09/02 05:35:24;;;;;;;11.00;6.00;;;;;;;14.40;51.67;94316.28;4974372;28;20995;-79
2021/09/02 05:37:50;;;;;;;8.32;6.00;;;;;;;14.51;51.68;94320.94;4973991;28;20031;-77
2021/09/02 05:40:15;;;;;;;9.10;5.97;;;;;;;14.54;51.18;94317.63;4974427;28;20740;-78
2021/09/02 05:42:41;;;;;;;7.05;5.80;;;;;;;14.61;51.03;94317.13;4971309;28;20082;-78
2021/09/02 05:45:08;;;;;;;7.35;5.28;;;;;;;14.48;51.38;94313.53;4974241;28;20042;-78
2021/09/02 05:47:36;;;;;;;7.07;5.53;;;;;;;14.53;51.33;94332.13;4971697;28;20038;-77
2021/09/02 05:50:06;;;;;;;9.27;5.47;;;;;;;14.68;51.18;94332.66;4972889;28;20113;-78
2021/09/02 05:52:31;;;;;;;7.35;6.00;;;;;;;14.73;50.93;94325.22;4975335;28;20038;-78
2021/09/02 05:54:58;;;;;;;7.68;5.50;;;;;;;14.85;51.17;94332.53;4972268;28;20591;-78
2021/09/02 05:57:24;;;;;;;9.73;5.45;;;;;;;14.91;50.77;94325.88;4975805;28;20042;-77
2021/09/02 05:59:49;;;;;;;7.85;5.20;;;;;;;14.98;50.80;94320.78;4970865;28;20704;-77
2021/09/02 06:02:15;;;;;;;6.95;5.13;;;;;;;15.22;50.38;94336.94;4973052;28;20041;-77
2021/09/02 06:04:40;;;;;;;6.93;5.05;;;;;;;15.28;49.83;94329.50;4974500;28;20080;-78
2021/09/02 06:07:05;;;;;;;8.07;4.55;;;;;;;15.31;48.95;94326.13;4971230;28;20041;-78
2021/09/02 06:09:31;;;;;;;7.55;5.00;;;;;;;15.47;49.54;94340.53;4971908;28;20050;-77
2021/09/02 06:11:56;;;;;;;9.00;4.65;;;;;;;15.66;49.42;94334.66;4974136;28;20053;-77
2021/09/02 06:14:21;;;;;;;9.10;5.40;;;;;;;15.64;48.92;94300.16;4973012;28;20036;-78
2021/09/02 06:16:47;;;;;;;9.18;5.10;;;;;;;15.90;48.69;94335.47;4971741;28;20776;-77
2021/09/02 06:19:12;;;;;;;5.43;4.85;;;;;;;15.86;48.59;94334.59;4972024;28;20035;-78
2021/09/02 06:21:39;;;;;;;7.43;4.68;;;;;;;15.92;48.34;94337.84;4971869;28;20046;-78
2021/09/02 06:24:04;;;;;;;7.65;5.35;;;;;;;16.13;48.45;94327.81;4973594;28;20050;-77
2021/09/02 06:26:30;;;;;;;6.63;4.55;;;;;;;16.21;47.75;94324.22;4973960;28;20038;-78
2021/09/02 06:28:55;;;;;;;5.63;4.75;;;;;;;16.27;47.78;94349.72;4970112;28;20034;-77
2021/09/02 06:31:20;;;;;;;8.60;5.13;;;;;;;16.37;47.22;94337.78;4971528;28;20031;-77
2021/09/02 06:33:46;;;;;;;5.93;4.43;;;;;;;15.98;47.32;94333.81;4972843;28;20518;-77
2021/09/02 06:36:11;;;;;;;8.38;4.60;;;;;;;16.05;48.10;94342.09;4972294;28;20501;-77
2021/09/02 06:38:37;;;;;;;6.53;4.97;;;;;;;16.17;47.32;94347.47;4970988;28;20031;-77
2021/09/02 06:41:02;;;;;;;7.78;5.03;;;;;;;16.09;47.40;94332.25;4976681;28;20034;-77
2021/09/02 06:43:28;;;;;;;4.80;4.30;;;;;;;16.20;47.48;94348.69;4971375;28;20042;-77
2021/09/02 06:45:53;;;;;;;6.47;4.68;;;;;;;16.23;47.43;94332.69;4970315;28;20054;-79
2021/09/02 06:48:19;;;;;;;6.50;5.03;;;;;;;16.27;47.59;94338.97;4970777;28;20069;-77
2021/09/02 06:50:44;;;;;;;6.32;4.40;;;;;;;16.27;47.88;94332.81;4973525;28;20038;-77
2021/09/02 06:53:09;;;;;;;5.57;4.90;;;;;;;16.15;47.09;94314.03;4970547;28;20311;-78
2021/09/02 06:55:35;;;;;;;5.53;4.53;;;;;;;16.39;47.39;94326.69;4971310;28;20038;-78
2021/09/02 06:58:00;;;;;;;6.82;4.38;;;;;;;16.40;46.92;94330.94;4972111;28;20338;-78
2021/09/02 07:00:26;;;;;;;5.03;4.22;;;;;;;16.48;46.89;94330.03;4968890;28;20069;-78
2021/09/02 07:02:51;;;;;;;5.03;4.25;;;;;;;16.39;46.30;94313.25;4971566;28;20219;-78
2021/09/02 07:05:18;;;;;;;4.50;3.67;;;;;;;16.46;47.17;94318.88;4966547;28;20053;-78
2021/09/02 07:07:44;;;;;;;5.78;4.10;;;;;;;16.41;47.00;94321.78;4968384;28;20026;-79
2021/09/02 07:10:10;;;;;;;11.45;4.22;;;;;;;16.26;47.02;94299.06;4982781;28;20096;-78
2021/09/02 07:12:35;;;;;;;9.05;4.50;;;;;;;16.38;46.58;94323.22;4972822;28;20446;-78
2021/09/02 07:15:01;;;;;;;6.35;3.80;;;;;;;16.22;46.91;94323.09;4971080;28;20058;-77
2021/09/02 07:17:26;;;;;;;6.18;3.90;;;;;;;16.29;46.77;94325.22;4967918;28;20062;-79
2021/09/02 07:19:51;;;;;;;7.57;3.75;;;;;;;16.19;47.44;94306.88;4973710;28;20032;-78
2021/09/02 07:22:19;;;;;;;6.10;4.30;;;;;;;16.15;47.74;94330.91;4973520;28;20125;-78
2021/09/02 07:24:44;;;;;;;7.03;3.97;;;;;;;16.09;47.58;94334.16;4976141;28;20046;-78
2021/09/02 07:27:10;;;;;;;5.45;4.60;;;;;;;15.96;48.29;94328.00;4974018;28;21083;-77
2021/09/02 07:29:36;;;;;;;8.23;4.20;;;;;;;16.02;48.21;94329.34;4971004;28;20034;-78
2021/09/02 07:32:03;;;;;;;5.22;4.03;;;;;;;16.09;47.76;94326.88;4973271;28;20081;-77
2021/09/02 07:34:29;;;;;;;7.22;4.32;;;;;;;16.26;47.92;94342.00;4969615;28;20504;-79
2021/09/02 07:36:57;;;;;;;6.55;3.85;;;;;;;16.23;47.84;94340.75;4963772;28;20227;-77
2021/09/02 07:39:22;;;;;;;6.88;3.17;;;;;;;16.30;47.43;94337.50;4971167;28;20042;-77
2021/09/02 07:41:48;;;;;;;5.97;3.20;;;;;;;16.39;47.31;94346.25;4976915;28;20051;-78
2021/09/02 07:44:13;;;;;;;4.32;3.38;;;;;;;16.29;47.24;94342.09;4969176;28;20026;-79
2021/09/02 07:46:39;;;;;;;7.57;3.50;;;;;;;16.38;48.19;94343.94;4975950;28;20030;-78
2021/09/02 07:49:04;;;;;;;7.28;4.10;;;;;;;16.54;47.75;94344.78;4970758;28;20044;-78
2021/09/02 07:51:29;;;;;;;5.53;2.92;;;;;;;16.63;47.88;94332.03;4971152;28;20044;-77
2021/09/02 07:53:55;;;;;;;4.57;3.67;;;;;;;16.51;47.15;94318.63;4968922;28;20130;-78
2021/09/02 07:56:20;;;;;;;5.07;3.90;;;;;;;16.49;47.07;94310.13;4971984;28;20030;-78
2021/09/02 07:58:46;;;;;;;5.18;3.28;;;;;;;16.81;46.96;94344.09;4972710;28;20049;-77
2021/09/02 08:01:12;;;;;;;9.43;3.45;;;;;;;16.85;47.29;94330.75;4972412;28;20497;-78
2021/09/02 08:03:38;;;;;;;4.53;3.80;;;;;;;17.05;46.69;94341.34;4973029;28;20038;-78
2021/09/02 08:06:04;;;;;;;6.35;3.38;;;;;;;17.16;46.01;94333.59;4971090;28;20401;-78
2021/09/02 08:08:30;;;;;;;7.65;3.40;;;;;;;17.03;45.46;94327.47;4975894;28;20035;-78
2021/09/02 08:10:55;;;;;;;6.85;3.85;;;;;;;17.12;45.04;94319.25;4971704;28;20079;-78
2021/09/02 08:13:21;;;;;;;6.32;3.40;;;;;;;17.15;45.81;94330.16;4972061;28;20058;-78
2021/09/02 08:15:46;;;;;;;6.18;3.80;;;;;;;17.14;45.49;94323.22;4973847;28;20045;-77
2021/09/02 08:18:12;;;;;;;5.97;3.22;;;;;;;17.06;45.78;94309.88;4974050;28;20041;-77
2021/09/02 08:20:37;;;;;;;5.78;3.88;;;;;;;17.14;45.51;94322.41;4972347;28;20045;-78
2021/09/02 08:23:03;;;;;;;5.38;3.65;;;;;;;17.03;45.95;94311.34;4970033;28;20034;-77
2021/09/02 08:25:29;;;;;;;6.38;4.05;;;;;;;17.27;45.71;94341.97;4970078;28;20500;-79
2021/09/02 08:27:54;;;;;;;4.18;3.50;;;;;;;17.26;45.57;94322.34;4970990;28;20428;-78
2021/09/02 08:30:24;;;;;;;7.15;3.20;;;;;;;17.48;46.09;94331.78;4989015;28;20058;-77
2021/09/02 08:32:50;;;;;;;5.20;3.95;;;;;;;17.40;45.26;94336.22;4970493;28;20061;-78
2021/09/02 08:35:25;;;;;;;12.32;4.00;;;;;;;17.22;45.48;94324.16;4976294;28;20586;-78
2021/09/02 08:37:53;;;;;;;3.70;3.20;;;;;;;17.35;44.50;94341.84;4972312;28;20152;-78
2021/09/02 08:40:21;;;;;;;3.35;3.05;;;;;;;17.35;44.38;94339.16;4973833;28;20074;-78
2021/09/02 08:42:47;;;;;;;10.32;3.25;;;;;;;17.18;44.29;94339.41;4974815;28;20038;-77
2021/09/02 08:45:13;;;;;;;5.97;3.17;;;;;;;17.16;44.08;94320.16;4978265;28;20022;-77
2021/09/02 08:47:44;;;;;;;5.15;3.53;;;;;;;17.30;44.66;94342.06;4975090;28;20128;-78
2021/09/02 08:50:10;;;;;;;3.90;3.03;;;;;;;17.26;45.34;94319.66;4975957;28;20049;-80
2021/09/02 08:52:35;;;;;;;4.57;3.10;;;;;;;17.39;44.95;94312.34;4974600;28;20026;-78
2021/09/02 08:55:03;;;;;;;4.45;3.60;;;;;;;17.67;45.31;94339.19;4973572;28;20049;-78
2021/09/02 08:57:28;;;;;;;4.78;3.20;;;;;;;17.78;45.75;94321.44;4974590;28;20042;-78
2021/09/02 08:59:54;;;;;;;6.05;3.17;;;;;;;17.96;44.24;94330.75;4971132;28;20057;-78
2021/09/02 09:02:21;;;;;;;4.65;3.38;;;;;;;17.86;43.78;94315.09;4976383;28;20033;-78
2021/09/02 09:04:58;;;;;;;6.03;3.05;;;;;;;18.01;43.82;94328.59;4977619;28;20030;-77
2021/09/02 09:07:31;;;;;;;3.45;2.60;;;;;;;17.88;43.89;94302.09;4971199;28;20134;-77
2021/09/02 09:09:57;;;;;;;4.35;3.05;;;;;;;18.04;43.49;94322.50;4992379;28;20058;-77
2021/09/02 09:12:36;;;;;;;3.63;2.35;;;;;;;17.87;43.21;94301.31;4976804;28;20433;-78
2021/09/02 09:15:03;;;;;;;5.25;3.38;;;;;;;18.00;43.51;94337.00;4973333;28;20045;-78
2021/09/02 09:17:29;;;;;;;4.93;3.40;;;;;;;18.04;43.08;94338.66;4976909;28;21096;-77
2021/09/02 09:19:54;;;;;;;3.67;2.90;;;;;;;17.83;43.29;94321.97;4977903;28;20497;-77
2021/09/02 09:22:21;;;;;;;4.78;3.45;;;;;;;17.79;43.10;94315.72;4974617;28;20042;-77
2021/09/02 09:24:47;;;;;;;3.15;2.70;;;;;;;17.86;43.39;94331.25;4976663;28;20046;-77
2021/09/02 09:27:14;;;;;;;7.38;3.38;;;;;;;17.84;44.07;94310.09;4974291;28;20247;-78
2021/09/02 09:29:40;;;;;;;5.07;3.05;;;;;;;18.02;43.79;94329.38;4976846;28;20038;-78
2021/09/02 09:32:17;;;;;;;4.57;3.15;;;;;;;18.07;43.51;94321.03;4973477;28;20053;-78
2021/09/02 09:34:54;;;;;;;6.82;2.78;;;;;;;17.91;43.86;94312.94;4978641;28;20050;-77
2021/09/02 09:37:21;;;;;;;6.47;3.70;;;;;;;17.78;42.98;94313.38;4954272;28;20065;-79
2021/09/02 09:39:48;;;;;;;5.50;2.65;;;;;;;17.91;43.47;94322.91;4972729;28;20034;-78
2021/09/02 09:42:17;;;;;;;3.85;2.75;;;;;;;17.94;43.08;94323.03;4968882;28;20552;-78
2021/09/02 09:44:43;;;;;;;5.28;2.95;;;;;;;17.98;42.84;94318.53;4974919;28;20505;-77
2021/09/02 09:47:17;;;;;;;6.00;2.60;;;;;;;17.96;43.51;94312.69;4978000;28;20034;-78
2021/09/02 09:50:00;;;;;;;4.43;2.88;;;;;;;17.93;43.77;94299.94;4975768;28;20060;-78
2021/09/02 09:52:30;;;;;;;5.82;2.70;;;;;;;18.00;43.00;94315.47;4973430;28;20049;-78
2021/09/02 09:55:18;;;;;;;3.33;3.00;;;;;;;17.92;43.03;94302.94;4970294;28;20142;-78
2021/09/02 09:57:46;;;;;;;4.47;2.75;;;;;;;18.00;43.01;94316.25;4973826;28;20041;-78
2021/09/02 10:00:20;;;;;;;3.38;2.63;;;;;;;17.98;42.51;94315.84;4969901;28;20600;-77
2021/09/02 10:02:51;;;;;;;4.88;2.65;;;;;;;17.96;42.13;94320.78;4991467;28;20413;-79
2021/09/02 10:05:19;;;;;;;4.65;2.53;;;;;;;18.02;42.65;94327.47;4974801;28;20105;-78
2021/09/02 10:07:49;;;;;;;6.70;2.78;;;;;;;17.98;42.77;94299.69;4976697;28;20483;-77
2021/09/02 10:10:16;;;;;;;3.42;2.50;;;;;;;18.06;42.75;94303.31;4972189;28;20042;-77
2021/09/02 10:12:47;;;;;;;3.90;3.22;;;;;;;17.99;42.84;94317.38;4964745;28;20057;-78
2021/09/02 10:15:19;;;;;;;2.85;2.28;;;;;;;18.00;42.89;94308.19;4987453;28;20061;-78
2021/09/02 10:17:45;;;;;;;4.78;2.65;;;;;;;18.23;42.98;94310.28;4975303;28;20058;-77
2021/09/02 10:20:20;;;;;;;5.07;2.90;;;;;;;18.30;42.68;94318.50;4967421;28;20152;-78
2021/09/02 10:22:48;;;;;;;4.78;2.83;;;;;;;18.46;42.90;94311.97;4974225;28;20026;-78
2021/09/02 10:25:35;;;;;;;4.63;2.25;;;;;;;18.45;42.84;94329.25;4973822;28;20046;-77
2021/09/02 10:28:29;;;;;;;6.68;2.65;;;;;;;18.43;41.26;94333.44;4971316;28;20156;-77
2021/09/02 10:30:58;;;;;;;3.45;2.20;;;;;;;18.37;41.43;94321.38;4967456;28;20042;-78
2021/09/02 10:33:43;;;;;;;3.25;2.47;;;;;;;18.13;41.59;94302.72;4975287;28;20039;-78
2021/09/02 10:36:15;;;;;;;4.22;2.50;;;;;;;18.33;42.25;94321.25;4970199;28;21059;-79
2021/09/02 10:38:46;;;;;;;3.53;3.22;;;;;;;18.37;42.29;94315.97;4973139;28;20370;-78
2021/09/02 10:41:12;;;;;;;3.00;2.65;;;;;;;18.18;42.46;94313.22;4972276;28;20091;-78
2021/09/02 10:43:48;;;;;;;3.47;2.40;;;;;;;18.39;42.41;94311.00;4974304;28;20080;-79
2021/09/02 10:46:28;;;;;;;3.05;2.45;;;;;;;18.53;41.92;94314.03;4967790;28;20042;-79
2021/09/02 10:48:54;;;;;;;4.25;2.65;;;;;;;18.59;42.51;94303.75;4971267;28;20101;-78
2021/09/02 10:51:36;;;;;;;2.58;1.95;;;;;;;18.73;40.16;94291.41;4976429;28;20026;-78
2021/09/02 10:54:04;;;;;;;3.00;1.80;;;;;;;18.81;39.80;94308.53;4969959;28;20034;-77
2021/09/02 10:56:51;;;;;;;7.95;2.65;;;;;;;17.83;40.08;94149.78;4972678;28;20895;-77
2021/09/02 10:59:49;;;;;;;2.88;2.10;;;;;;;19.06;39.80;94322.53;4973141;28;20493;-78
2021/09/02 11:02:18;;;;;;;3.58;1.95;;;;;;;19.00;39.08;94319.31;4935083;28;20042;-77
2021/09/02 11:04:45;;;;;;;4.30;2.22;;;;;;;19.04;39.45;94325.56;4971290;28;20041;-78
2021/09/02 11:07:11;;;;;;;3.42;1.90;;;;;;;19.05;39.66;94320.97;4975090;28;20057;-78
2021/09/02 11:09:39;;;;;;;2.42;1.70;;;;;;;18.93;38.94;94313.78;4973913;28;20167;-79
2021/09/02 11:12:08;;;;;;;2.67;2.13;;;;;;;19.08;39.29;94314.84;4968555;28;20425;-78
2021/09/02 11:14:47;;;;;;;2.17;1.90;;;;;;;19.05;39.02;94310.97;4967069;28;20498;-78
2021/09/02 11:17:13;;;;;;;3.67;2.28;;;;;;;19.08;39.38;94304.84;4972116;28;20038;-79
2021/09/02 11:19:41;;;;;;;2.42;1.75;;;;;;;19.16;38.01;94292.31;4976205;28;20555;-77
2021/09/02 11:22:08;;;;;;;2.30;1.50;;;;;;;19.29;37.44;94315.28;4972002;28;20049;-78
2021/09/02 11:24:43;;;;;;;2.92;2.08;;;;;;;19.15;38.23;94313.09;4974777;28;20042;-77
2021/09/02 11:27:11;;;;;;;2.30;1.70;;;;;;;19.16;38.10;94319.28;4976196;28;20041;-77
2021/09/02 11:29:37;;;;;;;5.22;1.90;;;;;;;19.13;36.95;94317.25;4975213;28;20564;-78
2021/09/02 11:32:07;;;;;;;6.30;3.50;;;;;;;19.13;37.64;94311.88;4992653;28;20030;-77